Time;durP1;ratioP1;P1;durP2;ratioP2;P2;SDS_P1;SDS_P2;PMS_P1;PMS_P2;Temp;Humidity;BMP_temperature;BMP_pressure;BME280_temperature;BME280_humidity;BME280_pressure;Samples;Min_cycle;Max_cycle;Signal;HPM_P1;HPM_P2
2023/06/07 00:01:48;;;;;;;12.77;5.10;;;;;;;;;;5047957;28;20053;-66
2023/06/07 00:04:14;;;;;;;9.52;4.28;;;;;;;;;;5029940;28;20053;-66
2023/06/07 00:06:41;;;;;;;12.02;5.40;;;;;;;;;;5031112;28;20057;-66
2023/06/07 00:09:08;;;;;;;10.73;4.40;;;;;;;;;;5030662;28;20080;-66
2023/06/07 00:11:35;;;;;;;8.80;4.45;;;;;;;;;;5048238;28;20547;-66
2023/06/07 00:14:01;;;;;;;9.57;4.82;;;;;;;;;;5046489;28;20061;-67
2023/06/07 00:16:28;;;;;;;9.90;5.13;;;;;;;;;;5039773;28;20121;-66
2023/06/07 00:18:55;;;;;;;10.68;4.53;;;;;;;;;;5046695;28;20057;-66
2023/06/07 00:21:22;;;;;;;6.53;4.25;;;;;;;;;;5047782;28;20064;-66
2023/06/07 00:23:48;;;;;;;8.05;4.38;;;;;;;;;;5047476;28;21052;-66
2023/06/07 00:26:15;;;;;;;8.55;4.72;;;;;;;;;;5027315;28;20060;-66
2023/06/07 00:28:41;;;;;;;8.88;6.07;;;;;;;;;;5043416;28;20199;-66
2023/06/07 00:31:08;;;;;;;14.68;4.68;;;;;;;;;;5044005;28;20053;-66
2023/06/07 00:33:34;;;;;;;7.05;4.32;;;;;;;;;;5045397;28;20065;-65
2023/06/07 00:36:00;;;;;;;10.20;4.25;;;;;;;;;;5044808;28;20057;-66
2023/06/07 00:38:27;;;;;;;4.88;3.58;;;;;;;;;;5045471;28;20054;-66
2023/06/07 00:40:53;;;;;;;5.35;3.70;;;;;;;;;;5042709;28;20060;-65
2023/06/07 00:43:20;;;;;;;4.32;3.55;;;;;;;;;;5044115;28;20179;-66
2023/06/07 00:45:46;;;;;;;5.82;4.05;;;;;;;;;;5045481;28;20050;-65
2023/06/07 00:48:12;;;;;;;7.35;4.00;;;;;;;;;;5044608;28;20605;-66
2023/06/07 00:50:39;;;;;;;8.52;3.75;;;;;;;;;;5043812;28;20049;-66
2023/06/07 00:53:07;;;;;;;11.43;4.60;;;;;;;;;;5043512;28;20054;-66
2023/06/07 00:55:33;;;;;;;9.85;3.95;;;;;;;;;;5043472;28;20050;-65
2023/06/07 00:58:00;;;;;;;6.20;4.15;;;;;;;;;;5045551;28;20046;-66
2023/06/07 01:00:28;;;;;;;8.07;3.83;;;;;;;;;;5044064;28;20057;-66
2023/06/07 01:02:55;;;;;;;6.45;4.45;;;;;;;;;;5044438;28;20140;-66
2023/06/07 01:05:22;;;;;;;7.65;3.75;;;;;;;;;;5044633;28;20053;-66
2023/06/07 01:07:48;;;;;;;7.35;3.58;;;;;;;;;;5044938;28;20593;-66
2023/06/07 01:10:15;;;;;;;9.75;4.07;;;;;;;;;;5041959;28;20073;-66
2023/06/07 01:12:44;;;;;;;5.50;3.53;;;;;;;;;;5044349;28;20096;-66
2023/06/07 01:15:13;;;;;;;13.95;3.78;;;;;;;;;;5025613;28;20088;-66
2023/06/07 01:17:42;;;;;;;8.57;4.13;;;;;;;;;;5041604;28;20057;-66
2023/06/07 01:20:13;;;;;;;6.95;3.53;;;;;;;;;;5043075;28;20053;-66
2023/06/07 01:22:44;;;;;;;7.03;3.75;;;;;;;;;;5041996;28;20063;-66
2023/06/07 01:25:11;;;;;;;7.07;3.70;;;;;;;;;;5039702;28;20085;-66
2023/06/07 01:27:40;;;;;;;8.35;4.05;;;;;;;;;;5043434;28;20049;-66
2023/06/07 01:30:07;;;;;;;11.43;3.10;;;;;;;;;;5042524;28;20057;-66
2023/06/07 01:32:33;;;;;;;6.90;3.63;;;;;;;;;;5043466;28;20053;-66
2023/06/07 01:35:00;;;;;;;8.60;4.18;;;;;;;;;;5029174;28;20049;-66
2023/06/07 01:37:27;;;;;;;6.88;3.97;;;;;;;;;;5042323;28;20132;-66
2023/06/07 01:39:54;;;;;;;6.80;3.80;;;;;;;;;;5041620;28;20049;-66
2023/06/07 01:42:21;;;;;;;8.05;3.92;;;;;;;;;;5042113;28;20852;-66
2023/06/07 01:44:47;;;;;;;7.38;3.83;;;;;;;;;;5041390;28;20081;-65
2023/06/07 01:47:14;;;;;;;5.72;3.78;;;;;;;;;;5042730;28;20061;-65
2023/06/07 01:49:41;;;;;;;6.20;3.95;;;;;;;;;;5042043;28;20064;-66
2023/06/07 01:52:08;;;;;;;9.45;3.28;;;;;;;;;;5042586;28;20054;-66
2023/06/07 01:54:34;;;;;;;7.85;3.58;;;;;;;;;;5042581;28;20132;-66
2023/06/07 01:57:03;;;;;;;6.40;3.88;;;;;;;;;;5043807;28;20189;-65
2023/06/07 01:59:36;;;;;;;12.43;3.65;;;;;;;;;;5044135;28;20684;-65
2023/06/07 02:02:08;;;;;;;10.18;3.70;;;;;;;;;;5042571;28;20104;-66
2023/06/07 02:04:37;;;;;;;7.72;3.85;;;;;;;;;;5042557;28;20084;-65
2023/06/07 02:07:05;;;;;;;9.82;3.75;;;;;;;;;;5042752;28;20140;-65
2023/06/07 02:09:33;;;;;;;9.95;4.28;;;;;;;;;;5044560;28;20582;-65
2023/06/07 02:12:00;;;;;;;7.05;3.70;;;;;;;;;;5044208;28;20073;-66
2023/06/07 02:14:27;;;;;;;7.63;3.70;;;;;;;;;;5043475;28;20499;-65
2023/06/07 02:16:54;;;;;;;11.48;4.18;;;;;;;;;;5042963;28;20054;-65
2023/06/07 02:19:20;;;;;;;9.55;3.65;;;;;;;;;;5042872;28;20053;-66
2023/06/07 02:21:47;;;;;;;13.38;4.13;;;;;;;;;;5043012;28;20137;-66
2023/06/07 02:24:13;;;;;;;11.85;4.32;;;;;;;;;;5039368;28;20053;-65
2023/06/07 02:26:40;;;;;;;8.25;3.97;;;;;;;;;;5044118;28;20501;-67
2023/06/07 02:29:06;;;;;;;7.57;4.07;;;;;;;;;;5042811;28;20068;-66
2023/06/07 02:31:33;;;;;;;8.68;3.97;;;;;;;;;;5043249;28;20052;-66
2023/06/07 02:33:59;;;;;;;11.95;4.07;;;;;;;;;;5043374;28;20053;-65
2023/06/07 02:36:28;;;;;;;11.40;4.40;;;;;;;;;;5041063;28;20112;-65
2023/06/07 02:38:54;;;;;;;11.15;3.95;;;;;;;;;;5039216;28;20145;-66
2023/06/07 02:41:21;;;;;;;10.32;3.83;;;;;;;;;;5043316;28;20594;-65
2023/06/07 02:43:47;;;;;;;5.57;3.35;;;;;;;;;;5043605;28;20054;-65
2023/06/07 02:46:13;;;;;;;10.20;4.53;;;;;;;;;;5042123;28;20060;-66
2023/06/07 02:48:40;;;;;;;12.45;3.92;;;;;;;;;;5019704;28;20103;-66
2023/06/07 02:51:06;;;;;;;9.27;3.90;;;;;;;;;;5042600;28;20149;-65
2023/06/07 02:53:33;;;;;;;13.50;4.10;;;;;;;;;;5037140;28;20137;-66
2023/06/07 02:55:59;;;;;;;9.88;3.65;;;;;;;;;;5043994;28;20061;-65
2023/06/07 02:58:27;;;;;;;11.98;3.95;;;;;;;;;;5042298;28;20631;-65
2023/06/07 03:00:54;;;;;;;7.72;3.92;;;;;;;;;;5042467;28;20081;-65
2023/06/07 03:03:21;;;;;;;14.27;4.03;;;;;;;;;;5046733;28;20119;-65
2023/06/07 03:05:49;;;;;;;9.13;3.72;;;;;;;;;;5043529;28;20054;-65
2023/06/07 03:08:16;;;;;;;12.57;4.00;;;;;;;;;;5042815;28;20148;-66
2023/06/07 03:10:42;;;;;;;5.40;3.63;;;;;;;;;;5042442;28;20144;-65
2023/06/07 03:13:08;;;;;;;11.77;4.47;;;;;;;;;;5043535;28;20054;-65
2023/06/07 03:15:35;;;;;;;13.25;3.92;;;;;;;;;;5041134;28;20534;-65
2023/06/07 03:18:03;;;;;;;8.77;3.75;;;;;;;;;;5025426;28;20052;-65
2023/06/07 03:20:33;;;;;;;8.75;4.28;;;;;;;;;;5042477;28;20060;-65
2023/06/07 03:23:00;;;;;;;11.48;4.50;;;;;;;;;;5041477;28;20945;-65
2023/06/07 03:25:26;;;;;;;6.57;3.40;;;;;;;;;;5043297;28;20064;-65
2023/06/07 03:27:53;;;;;;;8.60;3.75;;;;;;;;;;5045513;28;20526;-66
2023/06/07 03:30:19;;;;;;;7.13;3.83;;;;;;;;;;5044248;28;20054;-65
2023/06/07 03:32:46;;;;;;;9.82;3.92;;;;;;;;;;5045475;28;20131;-65
2023/06/07 03:35:12;;;;;;;10.65;3.58;;;;;;;;;;5042492;28;20077;-65
2023/06/07 03:37:38;;;;;;;11.07;4.15;;;;;;;;;;5043833;28;20049;-65
2023/06/07 03:40:05;;;;;;;8.55;4.03;;;;;;;;;;5040966;28;20428;-65
2023/06/07 03:42:32;;;;;;;9.55;4.00;;;;;;;;;;5038391;28;20061;-66
2023/06/07 03:44:58;;;;;;;7.32;3.40;;;;;;;;;;5036643;28;20105;-66
2023/06/07 03:47:25;;;;;;;9.27;3.95;;;;;;;;;;5042229;28;20057;-65
2023/06/07 03:49:51;;;;;;;10.38;3.25;;;;;;;;;;5043024;28;20054;-65
2023/06/07 03:52:17;;;;;;;6.85;3.42;;;;;;;;;;5024304;28;20053;-65
2023/06/07 03:54:44;;;;;;;7.50;3.55;;;;;;;;;;5042291;28;20049;-65
2023/06/07 03:57:10;;;;;;;7.82;3.70;;;;;;;;;;5042903;28;20342;-64
2023/06/07 03:59:37;;;;;;;12.52;2.97;;;;;;;;;;5041523;28;20049;-65
2023/06/07 04:02:03;;;;;;;10.45;4.10;;;;;;;;;;5043185;28;20173;-63
2023/06/07 04:04:32;;;;;;;12.98;4.03;;;;;;;;;;5044554;28;20115;-65
2023/06/07 04:07:00;;;;;;;10.05;3.78;;;;;;;;;;5044883;28;20077;-65
2023/06/07 04:09:27;;;;;;;9.95;4.35;;;;;;;;;;5046736;28;20049;-65
2023/06/07 04:11:53;;;;;;;9.15;3.25;;;;;;;;;;5044945;28;20050;-65
2023/06/07 04:14:20;;;;;;;8.10;3.67;;;;;;;;;;5045126;28;20500;-65
2023/06/07 04:16:47;;;;;;;12.50;4.47;;;;;;;;;;5044868;28;20050;-65
2023/06/07 04:19:13;;;;;;;10.80;4.20;;;;;;;;;;5045276;28;20054;-65
2023/06/07 04:21:40;;;;;;;9.95;3.65;;;;;;;;;;5044579;28;20064;-65
2023/06/07 04:24:06;;;;;;;8.70;3.95;;;;;;;;;;5045432;28;20168;-65
2023/06/07 04:26:33;;;;;;;11.70;3.80;;;;;;;;;;5043743;28;20053;-65
2023/06/07 04:29:00;;;;;;;10.25;3.83;;;;;;;;;;5044781;28;20057;-65
2023/06/07 04:31:29;;;;;;;14.15;4.78;;;;;;;;;;5045465;28;20060;-65
2023/06/07 04:34:01;;;;;;;7.80;4.47;;;;;;;;;;5043726;28;20064;-65
2023/06/07 04:36:30;;;;;;;7.45;3.35;;;;;;;;;;5042090;28;20049;-65
2023/06/07 04:38:58;;;;;;;7.22;3.58;;;;;;;;;;5035819;28;20177;-65
2023/06/07 04:41:32;;;;;;;7.43;4.05;;;;;;;;;;5028478;28;20057;-65
2023/06/07 04:44:03;;;;;;;12.25;4.65;;;;;;;;;;5044865;28;20048;-65
2023/06/07 04:46:30;;;;;;;12.40;4.28;;;;;;;;;;5044812;28;20061;-65
2023/06/07 04:48:58;;;;;;;12.90;4.07;;;;;;;;;;5038102;28;20050;-65
2023/06/07 04:51:26;;;;;;;9.88;3.58;;;;;;;;;;5045863;28;20049;-66
2023/06/07 04:53:58;;;;;;;8.23;3.97;;;;;;;;;;5044034;28;20053;-66
2023/06/07 04:56:26;;;;;;;7.70;4.13;;;;;;;;;;5026202;28;20053;-65
2023/06/07 04:58:53;;;;;;;9.07;3.80;;;;;;;;;;5044949;28;20060;-66
2023/06/07 05:01:20;;;;;;;7.07;3.53;;;;;;;;;;5043357;28;20053;-65
2023/06/07 05:03:48;;;;;;;7.05;3.63;;;;;;;;;;5045030;28;20484;-65
2023/06/07 05:06:17;;;;;;;6.13;3.53;;;;;;;;;;5044355;28;20136;-65
2023/06/07 05:08:43;;;;;;;10.85;3.97;;;;;;;;;;5043786;28;20060;-65
2023/06/07 05:11:10;;;;;;;11.27;4.00;;;;;;;;;;5043027;28;20168;-66
2023/06/07 05:13:36;;;;;;;7.57;3.78;;;;;;;;;;5042043;28;20081;-66
2023/06/07 05:16:03;;;;;;;14.20;4.13;;;;;;;;;;5042373;28;20112;-65
2023/06/07 05:18:30;;;;;;;8.73;4.07;;;;;;;;;;5043569;28;20144;-66
2023/06/07 05:20:56;;;;;;;9.95;4.10;;;;;;;;;;5043631;28;20794;-66
2023/06/07 05:23:22;;;;;;;12.60;4.45;;;;;;;;;;5043130;28;20527;-66
2023/06/07 05:25:49;;;;;;;14.40;4.47;;;;;;;;;;5043121;28;20080;-66
2023/06/07 05:28:15;;;;;;;8.85;3.85;;;;;;;;;;5043263;28;20144;-65
2023/06/07 05:30:42;;;;;;;11.65;3.42;;;;;;;;;;5044601;28;20111;-66
2023/06/07 05:33:08;;;;;;;8.15;3.70;;;;;;;;;;5058418;28;20065;-65
2023/06/07 05:35:35;;;;;;;3.78;3.20;;;;;;;;;;5042390;28;20184;-66
2023/06/07 05:38:01;;;;;;;12.30;3.65;;;;;;;;;;5045376;28;20279;-66
2023/06/07 05:40:28;;;;;;;11.68;4.25;;;;;;;;;;5041604;28;20057;-66
2023/06/07 05:42:56;;;;;;;9.10;4.25;;;;;;;;;;5043447;28;20057;-65
2023/06/07 05:45:23;;;;;;;8.70;3.72;;;;;;;;;;5046562;28;20526;-66
2023/06/07 05:47:49;;;;;;;8.88;3.63;;;;;;;;;;5045617;28;20127;-66
2023/06/07 05:50:19;;;;;;;7.15;3.30;;;;;;;;;;5039615;28;20087;-65
2023/06/07 05:52:45;;;;;;;14.00;3.92;;;;;;;;;;5046081;28;20072;-65
2023/06/07 05:55:11;;;;;;;7.53;3.92;;;;;;;;;;5043365;28;20049;-66
2023/06/07 05:57:38;;;;;;;10.55;3.70;;;;;;;;;;5049553;28;20944;-66
2023/06/07 06:00:10;;;;;;;12.05;3.72;;;;;;;;;;5042560;28;20633;-65
2023/06/07 06:02:37;;;;;;;12.82;3.45;;;;;;;;;;5038230;28;20404;-65
2023/06/07 06:05:06;;;;;;;12.43;3.72;;;;;;;;;;5040530;28;20140;-65
2023/06/07 06:07:32;;;;;;;16.13;3.85;;;;;;;;;;5042367;28;20100;-64
2023/06/07 06:09:59;;;;;;;10.52;4.03;;;;;;;;;;5042378;28;20042;-65
2023/06/07 06:12:25;;;;;;;7.80;3.22;;;;;;;;;;5044185;28;20507;-64
2023/06/07 06:14:52;;;;;;;15.70;4.05;;;;;;;;;;5043753;28;20133;-64
2023/06/07 06:17:18;;;;;;;15.15;4.18;;;;;;;;;;5041748;28;20133;-65
2023/06/07 06:19:45;;;;;;;6.80;3.30;;;;;;;;;;5042145;28;20045;-65
2023/06/07 06:22:11;;;;;;;10.32;3.80;;;;;;;;;;5048272;28;20057;-65
2023/06/07 06:24:38;;;;;;;11.73;3.50;;;;;;;;;;5041891;28;20060;-65
2023/06/07 06:27:06;;;;;;;15.88;3.47;;;;;;;;;;5039699;28;20475;-65
2023/06/07 06:29:32;;;;;;;7.20;2.88;;;;;;;;;;5040294;28;20063;-65
2023/06/07 06:32:02;;;;;;;7.75;2.67;;;;;;;;;;5042160;28;20566;-64
2023/06/07 06:34:29;;;;;;;8.38;2.90;;;;;;;;;;5041639;28;20514;-65
2023/06/07 06:36:57;;;;;;;5.53;2.95;;;;;;;;;;5043035;28;20901;-65
2023/06/07 06:39:23;;;;;;;11.75;3.38;;;;;;;;;;5023034;28;20104;-65
2023/06/07 06:41:50;;;;;;;7.68;2.55;;;;;;;;;;5040250;28;20061;-65
2023/06/07 06:44:16;;;;;;;9.00;2.95;;;;;;;;;;5057077;28;20049;-64
2023/06/07 06:46:43;;;;;;;17.38;2.88;;;;;;;;;;5041683;28;20049;-65
2023/06/07 06:49:09;;;;;;;13.68;3.33;;;;;;;;;;5042911;28;20045;-66
2023/06/07 06:51:38;;;;;;;7.60;2.90;;;;;;;;;;5043643;28;20060;-64
2023/06/07 06:54:09;;;;;;;11.80;2.78;;;;;;;;;;5044006;28;20151;-63
2023/06/07 06:56:36;;;;;;;3.95;2.22;;;;;;;;;;5041740;28;20060;-64
2023/06/07 06:59:02;;;;;;;11.38;2.80;;;;;;;;;;5039922;28;20053;-63
2023/06/07 07:01:45;;;;;;;10.02;2.72;;;;;;;;;;5039390;28;20057;-62
2023/06/07 07:04:15;;;;;;;8.93;2.83;;;;;;;;;;5042937;28;20226;-62
2023/06/07 07:06:43;;;;;;;6.38;2.80;;;;;;;;;;5042171;28;20053;-63
2023/06/07 07:09:10;;;;;;;6.85;2.42;;;;;;;;;;5043347;28;20152;-64
2023/06/07 07:11:37;;;;;;;10.23;3.10;;;;;;;;;;5026120;28;20057;-64
2023/06/07 07:14:03;;;;;;;13.45;2.30;;;;;;;;;;5058801;28;20778;-64
2023/06/07 07:16:30;;;;;;;4.45;2.33;;;;;;;;;;5024600;28;20494;-63
2023/06/07 07:18:57;;;;;;;7.15;2.63;;;;;;;;;;5043227;28;20124;-64
2023/06/07 07:21:24;;;;;;;9.55;3.25;;;;;;;;;;5041924;28;20135;-64
2023/06/07 07:23:51;;;;;;;8.90;2.38;;;;;;;;;;5043113;28;20049;-64
2023/06/07 07:26:18;;;;;;;10.93;2.92;;;;;;;;;;5043005;28;20060;-64
2023/06/07 07:28:44;;;;;;;10.25;2.90;;;;;;;;;;5024981;28;20096;-64
2023/06/07 07:31:11;;;;;;;7.38;3.17;;;;;;;;;;5041234;28;21194;-64
2023/06/07 07:33:39;;;;;;;13.18;3.17;;;;;;;;;;5043478;28;20053;-63
2023/06/07 07:36:07;;;;;;;6.03;3.00;;;;;;;;;;5043532;28;20052;-63
2023/06/07 07:38:37;;;;;;;6.25;2.85;;;;;;;;;;5046104;28;20538;-65
2023/06/07 07:41:07;;;;;;;7.82;2.50;;;;;;;;;;5046743;28;20054;-63
2023/06/07 07:43:33;;;;;;;7.47;2.90;;;;;;;;;;5045590;28;20492;-64
2023/06/07 07:46:03;;;;;;;7.22;2.80;;;;;;;;;;5046561;28;20171;-65
2023/06/07 07:48:30;;;;;;;9.13;3.72;;;;;;;;;;5046139;28;20054;-65
2023/06/07 07:50:56;;;;;;;8.85;3.35;;;;;;;;;;5046253;28;20134;-65
2023/06/07 07:53:22;;;;;;;9.65;3.28;;;;;;;;;;5045537;28;20085;-65
2023/06/07 07:55:49;;;;;;;7.20;2.60;;;;;;;;;;5046773;28;20519;-65
2023/06/07 07:58:15;;;;;;;11.60;3.05;;;;;;;;;;5046478;28;20112;-65
2023/06/07 08:00:42;;;;;;;8.70;2.63;;;;;;;;;;5046458;28;20096;-64
2023/06/07 08:03:08;;;;;;;7.15;2.28;;;;;;;;;;5049502;28;20152;-64
2023/06/07 08:05:35;;;;;;;8.07;2.92;;;;;;;;;;5051394;28;20081;-65
2023/06/07 08:08:02;;;;;;;7.45;2.92;;;;;;;;;;5045171;28;20077;-64
2023/06/07 08:10:29;;;;;;;10.55;2.47;;;;;;;;;;5045575;28;20099;-65
2023/06/07 08:12:55;;;;;;;5.05;2.55;;;;;;;;;;5045440;28;20059;-65
2023/06/07 08:15:21;;;;;;;3.90;2.47;;;;;;;;;;5046478;28;20057;-65
2023/06/07 08:17:48;;;;;;;15.00;2.90;;;;;;;;;;5046088;28;20073;-64
2023/06/07 08:20:17;;;;;;;6.20;2.95;;;;;;;;;;5045602;28;20068;-65
2023/06/07 08:22:43;;;;;;;6.18;2.80;;;;;;;;;;5026166;28;20144;-65
2023/06/07 08:25:10;;;;;;;7.35;3.15;;;;;;;;;;5045102;28;20510;-65
2023/06/07 08:27:37;;;;;;;5.10;2.40;;;;;;;;;;5053180;28;20059;-65
2023/06/07 08:30:04;;;;;;;8.90;3.10;;;;;;;;;;5051613;28;20825;-65
2023/06/07 08:32:31;;;;;;;10.38;2.78;;;;;;;;;;5046313;28;20553;-65
2023/06/07 08:34:58;;;;;;;8.30;2.83;;;;;;;;;;5044256;28;20582;-65
2023/06/07 08:37:25;;;;;;;9.50;3.28;;;;;;;;;;5043341;28;20609;-65
2023/06/07 08:39:51;;;;;;;8.18;3.05;;;;;;;;;;5045924;28;20057;-65
2023/06/07 08:42:17;;;;;;;9.68;3.58;;;;;;;;;;5045948;28;20159;-65
2023/06/07 08:44:44;;;;;;;8.10;3.40;;;;;;;;;;5044089;28;20107;-65
2023/06/07 08:47:11;;;;;;;11.25;3.55;;;;;;;;;;5044338;28;20081;-66
2023/06/07 08:49:39;;;;;;;9.70;2.92;;;;;;;;;;5044228;28;20793;-65
2023/06/07 08:52:07;;;;;;;6.45;3.22;;;;;;;;;;5044423;28;20088;-65
2023/06/07 08:54:43;;;;;;;7.25;2.85;;;;;;;;;;5060306;28;20068;-64
2023/06/07 08:57:09;;;;;;;9.43;3.10;;;;;;;;;;5049365;28;20046;-64
2023/06/07 08:59:37;;;;;;;6.53;2.75;;;;;;;;;;5058661;28;20442;-65
2023/06/07 09:02:04;;;;;;;11.70;3.05;;;;;;;;;;5048098;28;20139;-65
2023/06/07 09:04:30;;;;;;;8.75;3.03;;;;;;;;;;5041517;28;20061;-63
2023/06/07 09:06:57;;;;;;;6.63;2.95;;;;;;;;;;5041687;28;20060;-64
2023/06/07 09:09:23;;;;;;;7.22;2.95;;;;;;;;;;5045728;28;20057;-65
2023/06/07 09:11:51;;;;;;;10.40;3.03;;;;;;;;;;5048694;28;20053;-64
2023/06/07 09:14:17;;;;;;;6.18;3.00;;;;;;;;;;5046778;28;20408;-65
2023/06/07 09:16:50;;;;;;;6.97;3.20;;;;;;;;;;5055992;28;20529;-65
2023/06/07 09:19:52;;;;;;;9.77;2.90;;;;;;;;;;5044780;28;20088;-64
2023/06/07 09:22:22;;;;;;;11.13;3.60;;;;;;;;;;4977653;28;20569;-65
2023/06/07 09:24:49;;;;;;;11.27;3.20;;;;;;;;;;4980573;28;20058;-65
2023/06/07 09:27:27;;;;;;;6.75;3.15;;;;;;;;;;4982470;28;20142;-62
2023/06/07 09:30:01;;;;;;;13.00;3.17;;;;;;;;;;4981644;28;20282;-63
2023/06/07 09:32:28;;;;;;;14.90;2.63;;;;;;;;;;4978302;28;20065;-63
2023/06/07 09:35:10;;;;;;;5.55;2.80;;;;;;;;;;4978809;28;20055;-64
2023/06/07 09:37:40;;;;;;;7.85;3.30;;;;;;;;;;4980367;28;20134;-64
2023/06/07 09:40:08;;;;;;;11.25;3.03;;;;;;;;;;4983053;28;20069;-64
2023/06/07 09:42:34;;;;;;;13.20;3.33;;;;;;;;;;4981378;28;20055;-64
2023/06/07 09:45:10;;;;;;;7.15;3.42;;;;;;;;;;4966593;28;20066;-64
2023/06/07 09:47:37;;;;;;;6.90;3.17;;;;;;;;;;4981984;28;20090;-64
2023/06/07 09:50:08;;;;;;;8.65;3.10;;;;;;;;;;4980090;28;20586;-64
2023/06/07 09:52:34;;;;;;;5.10;2.90;;;;;;;;;;4979373;28;20055;-64
2023/06/07 09:55:04;;;;;;;7.88;3.40;;;;;;;;;;4981832;28;20055;-64
2023/06/07 09:57:31;;;;;;;6.45;3.17;;;;;;;;;;5041204;28;20149;-65
2023/06/07 10:00:13;;;;;;;7.22;3.30;;;;;;;;;;5053457;28;20055;-65
2023/06/07 10:02:43;;;;;;;11.77;4.00;;;;;;;;;;5043728;28;20053;-65
2023/06/07 10:05:12;;;;;;;8.13;3.75;;;;;;;;;;5043939;28;20574;-65
2023/06/07 10:07:42;;;;;;;5.32;2.88;;;;;;;;;;5044440;28;20211;-65
2023/06/07 10:10:11;;;;;;;8.93;3.42;;;;;;;;;;5042202;28;20049;-65
2023/06/07 10:12:41;;;;;;;11.60;3.67;;;;;;;;;;5044323;28;20057;-64
2023/06/07 10:15:09;;;;;;;11.13;3.85;;;;;;;;;;5043396;28;20053;-64
2023/06/07 10:17:38;;;;;;;6.20;2.90;;;;;;;;;;5046122;28;20064;-64
2023/06/07 10:20:06;;;;;;;7.28;3.05;;;;;;;;;;5043770;28;20065;-64
2023/06/07 10:22:36;;;;;;;8.10;3.10;;;;;;;;;;5039713;28;20056;-65
2023/06/07 10:25:05;;;;;;;7.25;3.35;;;;;;;;;;5044329;28;20053;-66
2023/06/07 10:27:36;;;;;;;13.13;3.13;;;;;;;;;;5063986;28;20518;-65
2023/06/07 10:30:09;;;;;;;6.47;3.10;;;;;;;;;;5038550;28;20538;-65
2023/06/07 10:32:37;;;;;;;13.07;3.42;;;;;;;;;;5041378;28;20076;-64
2023/06/07 10:35:07;;;;;;;9.45;3.90;;;;;;;;;;5042077;28;20092;-64
2023/06/07 10:37:35;;;;;;;6.05;2.80;;;;;;;;;;5041136;28;20975;-64
2023/06/07 10:40:09;;;;;;;7.45;2.72;;;;;;;;;;5033284;28;20049;-64
2023/06/07 10:42:40;;;;;;;8.40;3.33;;;;;;;;;;5060543;28;20115;-65
2023/06/07 10:45:07;;;;;;;4.88;2.97;;;;;;;;;;5046180;28;20681;-64
2023/06/07 10:47:33;;;;;;;5.88;2.83;;;;;;;;;;5043113;28;20060;-64
2023/06/07 10:50:00;;;;;;;6.13;2.78;;;;;;;;;;5054184;28;20064;-64
2023/06/07 10:52:26;;;;;;;4.75;2.83;;;;;;;;;;5063766;28;20060;-65
2023/06/07 10:54:53;;;;;;;5.00;3.08;;;;;;;;;;5063767;28;20507;-64
2023/06/07 10:57:32;;;;;;;9.75;3.28;;;;;;;;;;5063482;28;20509;-65
2023/06/07 11:00:17;;;;;;;4.40;2.40;;;;;;;;;;5062623;28;20048;-65
2023/06/07 11:02:44;;;;;;;6.82;3.05;;;;;;;;;;5042196;28;20136;-65
2023/06/07 11:05:11;;;;;;;9.73;2.90;;;;;;;;;;5043464;28;20604;-65
2023/06/07 11:07:41;;;;;;;5.13;2.90;;;;;;;;;;5041333;28;20083;-65
2023/06/07 11:10:08;;;;;;;16.17;2.97;;;;;;;;;;5038322;28;20053;-65
2023/06/07 11:12:35;;;;;;;6.07;3.00;;;;;;;;;;5043106;28;20053;-65
2023/06/07 11:15:17;;;;;;;6.32;3.45;;;;;;;;;;5041820;28;20799;-65
2023/06/07 11:17:59;;;;;;;5.50;3.33;;;;;;;;;;5043898;28;20486;-65
2023/06/07 11:20:38;;;;;;;6.68;2.92;;;;;;;;;;5042979;28;20502;-64
2023/06/07 11:23:21;;;;;;;7.25;3.10;;;;;;;;;;5042200;28;20049;-64
2023/06/07 11:25:53;;;;;;;5.75;2.80;;;;;;;;;;5035517;28;20472;-65
2023/06/07 11:28:29;;;;;;;7.45;2.85;;;;;;;;;;5023614;28;20188;-66
2023/06/07 11:30:56;;;;;;;8.93;3.38;;;;;;;;;;5041797;28;20061;-65
2023/06/07 11:33:23;;;;;;;7.18;2.95;;;;;;;;;;5041199;28;20057;-66
2023/06/07 11:35:49;;;;;;;6.05;2.95;;;;;;;;;;5039013;28;20053;-65
2023/06/07 11:38:16;;;;;;;4.85;2.50;;;;;;;;;;5042274;28;20585;-66
2023/06/07 11:40:43;;;;;;;4.18;2.75;;;;;;;;;;5043085;28;20057;-65
2023/06/07 11:43:11;;;;;;;4.97;2.47;;;;;;;;;;5042161;28;20140;-65
2023/06/07 11:45:40;;;;;;;5.28;3.08;;;;;;;;;;5042700;28;20876;-65
2023/06/07 11:48:07;;;;;;;4.82;2.50;;;;;;;;;;5042721;28;20063;-65
2023/06/07 11:50:35;;;;;;;5.38;2.67;;;;;;;;;;5041490;28;20053;-66
2023/06/07 11:53:02;;;;;;;7.28;3.03;;;;;;;;;;5041197;28;20609;-65
2023/06/07 11:55:28;;;;;;;5.63;2.83;;;;;;;;;;5042354;28;20135;-65
2023/06/07 11:57:55;;;;;;;7.65;3.28;;;;;;;;;;5042348;28;20773;-65
2023/06/07 12:00:23;;;;;;;6.32;3.15;;;;;;;;;;5043421;28;20061;-66
2023/06/07 12:02:50;;;;;;;6.80;3.08;;;;;;;;;;5041828;28;20189;-65
2023/06/07 12:05:17;;;;;;;4.10;3.00;;;;;;;;;;5042285;28;20053;-65
2023/06/07 12:07:52;;;;;;;4.10;2.80;;;;;;;;;;5042817;28;20978;-65
2023/06/07 12:10:27;;;;;;;6.72;3.20;;;;;;;;;;5042134;28;20132;-65
2023/06/07 12:13:12;;;;;;;7.72;3.17;;;;;;;;;;5040288;28;20360;-65
2023/06/07 12:15:48;;;;;;;9.68;3.38;;;;;;;;;;5042769;28;20057;-64
2023/06/07 12:18:18;;;;;;;5.38;2.75;;;;;;;;;;5042094;28;20056;-65
2023/06/07 12:20:45;;;;;;;6.63;3.40;;;;;;;;;;5042220;28;20092;-65
2023/06/07 12:23:12;;;;;;;7.78;2.78;;;;;;;;;;5044073;28;20510;-66
2023/06/07 12:25:40;;;;;;;6.03;2.83;;;;;;;;;;5043292;28;20053;-66
2023/06/07 12:28:08;;;;;;;4.38;2.92;;;;;;;;;;5045213;28;20061;-66
2023/06/07 12:30:37;;;;;;;19.63;3.35;;;;;;;;;;5045028;28;20045;-66
2023/06/07 12:33:03;;;;;;;12.77;3.95;;;;;;;;;;5044760;28;20056;-65
2023/06/07 12:35:38;;;;;;;15.15;3.00;;;;;;;;;;5044501;28;20060;-66
2023/06/07 12:38:07;;;;;;;6.63;2.73;;;;;;;;;;5045745;28;20056;-65
2023/06/07 12:40:34;;;;;;;6.65;2.97;;;;;;;;;;5043477;28;20045;-66
2023/06/07 12:43:00;;;;;;;10.82;2.97;;;;;;;;;;5027368;28;20056;-66
2023/06/07 12:45:27;;;;;;;5.35;3.25;;;;;;;;;;5027515;28;20073;-65
2023/06/07 12:47:54;;;;;;;7.40;3.28;;;;;;;;;;5045360;28;20140;-65
2023/06/07 12:50:21;;;;;;;8.40;4.13;;;;;;;;;;5045892;28;20049;-66
2023/06/07 12:52:47;;;;;;;7.93;3.55;;;;;;;;;;5026901;28;20144;-66
2023/06/07 12:55:14;;;;;;;6.72;3.83;;;;;;;;;;5052829;28;20569;-65
2023/06/07 12:57:40;;;;;;;7.07;2.80;;;;;;;;;;5044989;28;20982;-64
2023/06/07 13:00:07;;;;;;;5.13;3.05;;;;;;;;;;5043957;28;20053;-66
2023/06/07 13:02:34;;;;;;;15.00;3.80;;;;;;;;;;5043326;28;20052;-66
2023/06/07 13:05:01;;;;;;;17.38;4.15;;;;;;;;;;5026409;28;20084;-65
2023/06/07 13:07:28;;;;;;;7.15;3.67;;;;;;;;;;5044093;28;20059;-65
2023/06/07 13:09:55;;;;;;;11.80;6.68;;;;;;;;;;5042188;28;20136;-65
2023/06/07 13:12:21;;;;;;;10.05;3.40;;;;;;;;;;5044560;28;20116;-65
2023/06/07 13:14:48;;;;;;;6.10;3.17;;;;;;;;;;5044237;28;20523;-65
2023/06/07 13:17:15;;;;;;;7.53;3.40;;;;;;;;;;5039537;28;20124;-66
2023/06/07 13:19:44;;;;;;;5.68;3.28;;;;;;;;;;5040872;28;20053;-65
2023/06/07 13:22:10;;;;;;;8.13;3.03;;;;;;;;;;5042476;28;20054;-64
2023/06/07 13:24:37;;;;;;;5.80;2.78;;;;;;;;;;5042539;28;20045;-65
2023/06/07 13:27:03;;;;;;;5.75;2.75;;;;;;;;;;5045157;28;20158;-65
2023/06/07 13:29:30;;;;;;;8.18;2.65;;;;;;;;;;5043646;28;20068;-65
2023/06/07 13:31:56;;;;;;;12.68;4.00;;;;;;;;;;5042386;28;20057;-64
2023/06/07 13:34:23;;;;;;;6.43;3.10;;;;;;;;;;5042910;28;20509;-65
2023/06/07 13:36:49;;;;;;;6.57;3.17;;;;;;;;;;5044861;28;20053;-64
2023/06/07 13:39:15;;;;;;;9.68;3.20;;;;;;;;;;5044173;28;20057;-65
2023/06/07 13:41:43;;;;;;;6.07;3.30;;;;;;;;;;5044545;28;20060;-64
2023/06/07 13:44:10;;;;;;;6.80;2.70;;;;;;;;;;5042589;28;20140;-65
2023/06/07 13:46:44;;;;;;;5.43;2.88;;;;;;;;;;5056079;28;20421;-65
2023/06/07 13:49:11;;;;;;;6.93;3.22;;;;;;;;;;5050029;28;20877;-65
2023/06/07 13:51:38;;;;;;;10.02;3.05;;;;;;;;;;5044892;28;20132;-65
2023/06/07 13:54:04;;;;;;;6.68;3.03;;;;;;;;;;5042391;28;20054;-66
2023/06/07 13:56:31;;;;;;;7.55;3.60;;;;;;;;;;5033695;28;20057;-66
2023/06/07 13:58:58;;;;;;;6.97;2.72;;;;;;;;;;5052399;28;20057;-64
2023/06/07 14:01:26;;;;;;;5.60;2.85;;;;;;;;;;5042229;28;20136;-65
2023/06/07 14:03:53;;;;;;;7.03;3.05;;;;;;;;;;5042278;28;20588;-65
2023/06/07 14:06:22;;;;;;;6.25;2.72;;;;;;;;;;5041067;28;20510;-65
2023/06/07 14:08:49;;;;;;;8.27;2.80;;;;;;;;;;5037997;28;20140;-65
2023/06/07 14:11:15;;;;;;;8.77;2.95;;;;;;;;;;5042974;28;20598;-64
2023/06/07 14:13:43;;;;;;;5.80;3.08;;;;;;;;;;5041516;28;20049;-65
2023/06/07 14:16:10;;;;;;;6.32;3.20;;;;;;;;;;5043884;28;20521;-64
2023/06/07 14:18:36;;;;;;;4.88;2.55;;;;;;;;;;5044001;28;20092;-65
2023/06/07 14:21:03;;;;;;;6.82;3.20;;;;;;;;;;5043487;28;20060;-65
2023/06/07 14:23:29;;;;;;;8.57;3.78;;;;;;;;;;5035695;28;20053;-65
2023/06/07 14:25:56;;;;;;;8.80;3.17;;;;;;;;;;5038892;28;20057;-65
2023/06/07 14:28:22;;;;;;;5.78;3.33;;;;;;;;;;5035382;28;20060;-65
2023/06/07 14:30:49;;;;;;;6.63;3.20;;;;;;;;;;5046457;28;20920;-64
2023/06/07 14:33:15;;;;;;;8.02;3.33;;;;;;;;;;5042190;28;20145;-63
2023/06/07 14:35:42;;;;;;;7.43;3.38;;;;;;;;;;5026679;28;20050;-63
2023/06/07 14:38:08;;;;;;;7.05;3.03;;;;;;;;;;5042955;28;20061;-64
2023/06/07 14:40:34;;;;;;;7.30;2.95;;;;;;;;;;5042590;28;20053;-63
2023/06/07 14:43:01;;;;;;;5.45;3.05;;;;;;;;;;5027918;28;20533;-63